Nikko Maru — JD3180 — position and weather

sailwx.info

Track history (hours):
 
Tides and Currents Weather Stations Pressure Air Temp Water Temp Dewpoint Dewpoint Depression Visibility Wind Speed Wind Dir Waves Ship Positions

Nikko Maru

Last reported at 2018-Feb-24 15:01 UTC. Time now 2018-Feb-24 15:34 UTC.
Position N 34°33' E 135°27'.

Length 43 m; draft 4 m.

Type: Tug. MMSI: 431002379.

Date/timePositionNaut miles runAvg speedWind from/ knotsBaromVisibWave heightAir tempDewpointWater temp
2018-Feb-24 15:01N 34°33' E 135°27'0 0.0
2018-Feb-24 14:30N 34°33' E 135°27'0 0.0
2018-Feb-24 14:00N 34°33' E 135°27'0 0.0
2018-Feb-24 13:29N 34°33' E 135°27'0 0.0
2018-Feb-24 13:00N 34°33' E 135°27'4 8.7
2018-Feb-24 12:30N 34°33' E 135°21'714.4
2018-Feb-24 12:00N 34°34' E 135°13'714.7
2018-Feb-24 11:30N 34°35' E 135°04'611.6
2018-Feb-24 11:00N 34°36' E 134°57'4 8.8
2018-Feb-24 10:30N 34°37' E 135°02'4 7.8
2018-Feb-24 10:00N 34°37' E 135°07'3 5.1
2018-Feb-24 09:30N 34°38' E 135°10'0 0.1
2018-Feb-24 09:00N 34°38' E 135°10'0 0.0
2018-Feb-24 08:30N 34°38' E 135°10'0 0.0
2018-Feb-24 08:01N 34°38' E 135°10'0 0.1
2018-Feb-24 07:30N 34°38' E 135°10'0 0.1
2018-Feb-24 07:00N 34°38' E 135°10'0 0.0
2018-Feb-24 06:30N 34°38' E 135°10'0 0.1
2018-Feb-24 06:01N 34°38' E 135°10'0 0.0
2018-Feb-24 05:31N 34°38' E 135°10'1 2.9
2018-Feb-24 05:00N 34°37' E 135°09'612.0
2018-Feb-24 04:30N 34°37' E 135°01'815.1
2018-Feb-24 04:00N 34°35' E 134°52'816.1
2018-Feb-24 03:30N 34°32' E 134°43'816.3
2018-Feb-24 03:00N 34°29' E 134°34'816.2
2018-Feb-24 02:30N 34°27' E 134°25'  
2018-Feb-18 10:49N 34°26' E 134°08'1414.6
2018-Feb-18 09:53N 34°27' E 134°24'614.7
2018-Feb-18 09:30N 34°29' E 134°31'714.5
2018-Feb-18 09:00N 34°31' E 134°39'714.2
2018-Feb-18 08:30N 34°34' E 134°47'713.2
2018-Feb-18 08:00N 34°36' E 134°54'611.6
2018-Feb-18 07:30N 34°37' E 135°01'612.2
2018-Feb-18 07:00N 34°35' E 135°09'714.3
2018-Feb-18 06:31N 34°34' E 135°17'714.2
2018-Feb-18 06:00N 34°33' E 135°26'1 1.6
2018-Feb-18 05:30N 34°33' E 135°27'0 0.0
2018-Feb-18 05:00N 34°33' E 135°27'0 0.0
2018-Feb-18 04:30N 34°33' E 135°27'0 0.0
2018-Feb-18 03:59N 34°33' E 135°27'0 0.0
2018-Feb-18 03:30N 34°33' E 135°27'0 0.0
2018-Feb-18 03:00N 34°33' E 135°27'0 0.0
2018-Feb-18 02:30N 34°33' E 135°27'0 0.0
2018-Feb-18 02:00N 34°33' E 135°27'0 0.0
2018-Feb-18 01:30N 34°33' E 135°27'0 0.0
2018-Feb-18 01:00N 34°33' E 135°27'0 0.0
2018-Feb-18 00:29N 34°33' E 135°27'0 0.0
2018-Feb-18 00:00N 34°33' E 135°27'0 0.0
2018-Feb-17 23:30N 34°33' E 135°27'0 0.0
2018-Feb-17 23:00N 34°33' E 135°27'0 0.0
2018-Feb-17 22:30N 34°33' E 135°27'0 0.0
2018-Feb-17 22:00N 34°33' E 135°27'0 0.0
2018-Feb-17 21:30N 34°33' E 135°27'0 0.0
2018-Feb-17 20:58N 34°33' E 135°27'0 0.0
2018-Feb-17 20:30N 34°33' E 135°27'0 0.0
2018-Feb-17 20:00N 34°33' E 135°27'0 0.0
2018-Feb-17 19:30N 34°33' E 135°27'0 0.0
2018-Feb-17 19:00N 34°33' E 135°27'0 0.0
2018-Feb-17 18:30N 34°33' E 135°27'0 0.0
2018-Feb-17 18:00N 34°33' E 135°27'0 0.0
2018-Feb-17 17:30N 34°33' E 135°27'0 0.0
2018-Feb-17 17:01N 34°33' E 135°27'0 0.0
2018-Feb-17 16:30N 34°33' E 135°27'0 0.0
2018-Feb-17 16:00N 34°33' E 135°27'0 0.0
2018-Feb-17 15:30N 34°33' E 135°27'0 0.0
2018-Feb-17 15:00N 34°33' E 135°27'0 0.0
2018-Feb-17 14:30N 34°33' E 135°27'0 0.0
2018-Feb-17 14:00N 34°33' E 135°27'0 0.0
2018-Feb-17 13:30N 34°33' E 135°27'0 0.0
2018-Feb-17 13:00N 34°33' E 135°27'0 0.0
2018-Feb-17 12:30N 34°33' E 135°27'0 0.0
2018-Feb-17 12:01N 34°33' E 135°27'0 0.0
2018-Feb-17 11:30N 34°33' E 135°27'0 0.0
2018-Feb-17 11:00N 34°33' E 135°27'0 0.0
2018-Feb-17 10:30N 34°33' E 135°27'0 0.0
2018-Feb-17 10:01N 34°33' E 135°27'0 0.0
2018-Feb-17 09:30N 34°33' E 135°27'0 0.0
2018-Feb-17 09:00N 34°33' E 135°27'0 0.0
2018-Feb-17 08:30N 34°33' E 135°27'0 0.0
2018-Feb-17 08:01N 34°33' E 135°27'0 0.0
2018-Feb-17 07:31N 34°33' E 135°27'0 0.0
2018-Feb-17 07:00N 34°33' E 135°27'0 0.0
2018-Feb-17 06:29N 34°33' E 135°27'0 0.0
2018-Feb-17 06:00N 34°33' E 135°27'0 0.0
2018-Feb-17 05:30N 34°33' E 135°27'0 0.0
2018-Feb-17 05:00N 34°33' E 135°27'0 0.0
2018-Feb-17 04:31N 34°33' E 135°27'0 0.0
2018-Feb-17 04:01N 34°33' E 135°27'0 0.0
2018-Feb-17 03:30N 34°33' E 135°27'0 0.0
2018-Feb-17 03:00N 34°33' E 135°27'0 0.0
2018-Feb-17 02:30N 34°33' E 135°27'0 0.0
2018-Feb-17 02:00N 34°33' E 135°27'0 0.0
2018-Feb-17 01:31N 34°33' E 135°27'0 0.0
2018-Feb-17 01:00N 34°33' E 135°27'0 0.0
2018-Feb-17 00:30N 34°33' E 135°27'0 0.0
2018-Feb-17 00:00N 34°33' E 135°27'0 0.0
2018-Feb-16 23:31N 34°33' E 135°27'0 0.0
2018-Feb-16 23:01N 34°33' E 135°27'0 0.0
2018-Feb-16 22:30N 34°33' E 135°27'0 0.0
2018-Feb-16 22:00N 34°33' E 135°27'0 0.0
2018-Feb-16 21:30N 34°33' E 135°27'0 0.0
2018-Feb-16 21:00N 34°33' E 135°27'0 0.0
2018-Feb-16 20:30N 34°33' E 135°27'0 0.0
2018-Feb-16 20:00N 34°33' E 135°27'0 0.0
2018-Feb-16 19:30N 34°33' E 135°27'0 0.0
2018-Feb-16 19:01N 34°33' E 135°27'0 0.0
2018-Feb-16 18:30N 34°33' E 135°27'0 0.0
2018-Feb-16 18:00N 34°33' E 135°27'0 0.0
2018-Feb-16 17:30N 34°33' E 135°27'0 0.0
2018-Feb-16 16:59N 34°33' E 135°27'0 0.0
2018-Feb-16 16:31N 34°33' E 135°27'0 0.0
2018-Feb-16 16:00N 34°33' E 135°27'0 0.0
2018-Feb-16 15:29N 34°33' E 135°27'0 0.0
2018-Feb-16 15:00N 34°33' E 135°27'0 0.0
2018-Feb-16 14:31N 34°33' E 135°27'0 0.0
2018-Feb-16 14:01N 34°33' E 135°27'0 0.0
2018-Feb-16 13:30N 34°33' E 135°27'0 0.0
2018-Feb-16 13:00N 34°33' E 135°27'0 0.0
2018-Feb-16 12:30N 34°33' E 135°27'0 0.0
2018-Feb-16 12:01N 34°33' E 135°27'0 0.0
2018-Feb-16 11:30N 34°33' E 135°27'0 0.0
2018-Feb-16 11:01N 34°33' E 135°27'0 0.0
2018-Feb-16 10:30N 34°33' E 135°27'0 0.0
2018-Feb-16 10:01N 34°33' E 135°27'0 0.0
2018-Feb-16 09:30N 34°33' E 135°27'0 0.0
2018-Feb-16 09:00N 34°33' E 135°27'0 0.0
2018-Feb-16 08:30N 34°33' E 135°27'0 0.0
2018-Feb-16 08:01N 34°33' E 135°27'0 0.0
2018-Feb-16 07:31N 34°33' E 135°27'0 0.0
2018-Feb-16 07:00N 34°33' E 135°27'0 0.0
2018-Feb-16 06:30N 34°33' E 135°27'0 0.0
2018-Feb-16 06:00N 34°33' E 135°27'1 2.3
2018-Feb-16 05:30N 34°33' E 135°25'0 0.3
2018-Feb-16 05:00N 34°33' E 135°25'0 0.0
2018-Feb-16 04:30N 34°33' E 135°25'0 0.0
2018-Feb-16 04:00N 34°34' E 135°25'0 0.2
2018-Feb-16 03:31N 34°33' E 135°25'0 0.1
2018-Feb-16 03:01N 34°33' E 135°25'0 0.0
2018-Feb-16 02:30N 34°34' E 135°25'0 0.1
2018-Feb-16 02:00N 34°33' E 135°25'0 0.1
2018-Feb-16 01:31N 34°33' E 135°25'0 0.0
2018-Feb-16 01:00N 34°34' E 135°25'0 0.0
2018-Feb-16 00:31N 34°34' E 135°25'0 0.1
2018-Feb-16 00:00N 34°33' E 135°25'0 0.1
2018-Feb-15 23:31N 34°34' E 135°25'0 0.1
2018-Feb-15 23:01N 34°34' E 135°25'0 0.1
2018-Feb-15 22:30N 34°34' E 135°25'0 0.1
2018-Feb-15 22:00N 34°34' E 135°25'0 0.0
2018-Feb-15 21:30N 34°33' E 135°25'0 0.2
2018-Feb-15 21:01N 34°33' E 135°25'0 0.1
2018-Feb-15 20:30N 34°33' E 135°25'0 0.2
2018-Feb-15 20:01N 34°34' E 135°25'0 0.2
2018-Feb-15 19:30N 34°34' E 135°25'0 0.2
2018-Feb-15 19:01N 34°33' E 135°25'0 0.3
2018-Feb-15 18:31N 34°34' E 135°25'0 0.2
2018-Feb-15 18:00N 34°33' E 135°25'0 0.2
2018-Feb-15 17:30N 34°33' E 135°25'0 0.1
2018-Feb-15 17:00N 34°33' E 135°25'0 0.0
2018-Feb-15 16:30N 34°33' E 135°25'0 0.0
2018-Feb-15 16:00N 34°33' E 135°25'0 0.1
2018-Feb-15 15:31N 34°33' E 135°25'0 0.0
2018-Feb-15 15:00N 34°33' E 135°25'0 0.0
2018-Feb-15 14:30N 34°33' E 135°25'0 0.1
2018-Feb-15 14:00N 34°33' E 135°25'0 0.0
2018-Feb-15 13:30N 34°33' E 135°25'0 0.0
2018-Feb-15 13:00N 34°33' E 135°25'0 0.1
2018-Feb-15 12:30N 34°33' E 135°25'0 0.0
2018-Feb-15 12:01N 34°33' E 135°25'0 0.1
2018-Feb-15 11:31N 34°33' E 135°25'0 0.1
2018-Feb-15 11:00N 34°33' E 135°25'0 0.2
2018-Feb-15 10:31N 34°33' E 135°25'0 0.1
2018-Feb-15 10:00N 34°33' E 135°25'0 0.2
2018-Feb-15 09:30N 34°33' E 135°25'0 0.2
2018-Feb-15 09:00N 34°33' E 135°25'0 0.0
2018-Feb-15 08:30N 34°33' E 135°25'0 0.3
2018-Feb-15 08:00N 34°33' E 135°25'0 0.2
2018-Feb-15 07:31N 34°33' E 135°25'0 0.1
2018-Feb-15 07:01N 34°34' E 135°25'0 0.0
2018-Feb-15 06:31N 34°33' E 135°25'0 0.2
2018-Feb-15 06:00N 34°34' E 135°25'0 0.0
2018-Feb-15 05:30N 34°34' E 135°25'0 0.3
2018-Feb-15 05:01N 34°34' E 135°25'1 1.5
2018-Feb-15 04:30N 34°33' E 135°24'3 6.1
2018-Feb-15 04:00N 34°33' E 135°20'2 4.0
2018-Feb-15 03:29N 34°33' E 135°23'3 6.4
2018-Feb-15 03:00N 34°33' E 135°27'0 0.0
2018-Feb-15 02:30N 34°33' E 135°27'0 0.0
2018-Feb-15 02:00N 34°33' E 135°27'0 0.0
2018-Feb-15 01:30N 34°33' E 135°27'0 0.0
2018-Feb-15 01:00N 34°33' E 135°27'0 0.0
2018-Feb-15 00:30N 34°33' E 135°27'0 0.0
2018-Feb-15 00:00N 34°33' E 135°27'0 0.0
2018-Feb-14 23:30N 34°33' E 135°27'0 0.0
2018-Feb-14 22:59N 34°33' E 135°27'0 0.0
2018-Feb-14 22:31N 34°33' E 135°27'0 0.0
2018-Feb-14 22:00N 34°33' E 135°27'0 0.0
2018-Feb-14 21:30N 34°33' E 135°27'0 0.0
2018-Feb-14 21:00N 34°33' E 135°27'0 0.0
2018-Feb-14 20:30N 34°33' E 135°27'0 0.0
2018-Feb-14 20:00N 34°33' E 135°27'0 0.0
2018-Feb-14 19:30N 34°33' E 135°27'0 0.0
2018-Feb-14 19:00N 34°33' E 135°27'0 0.0
2018-Feb-14 18:30N 34°33' E 135°27'0 0.0
2018-Feb-14 18:00N 34°33' E 135°27'0 0.0
2018-Feb-14 17:30N 34°33' E 135°27'0 0.0
2018-Feb-14 17:00N 34°33' E 135°27'0 0.0
2018-Feb-14 16:30N 34°33' E 135°27'0 0.0
2018-Feb-14 16:00N 34°33' E 135°27'0 0.0
2018-Feb-14 15:30N 34°33' E 135°27'  
Track history (hours):
 
Tides and Currents Weather Stations Pressure Air Temp Water Temp Dewpoint Dewpoint Depression Visibility Wind Speed Wind Dir Waves Ship Positions

Nikko Maru

Last reported at 2018-Feb-24 15:01 UTC. Time now 2018-Feb-24 15:34 UTC.
Position N 34°33' E 135°27'.

Length 43 m; draft 4 m.

Type: Tug. MMSI: 431002379.

Date/timePositionNaut miles runAvg speedWind from/ knotsBaromVisibWave heightAir tempDewpointWater temp
2018-Feb-24 15:01N 34°33' E 135°27'0 0.0
2018-Feb-24 14:30N 34°33' E 135°27'0 0.0
2018-Feb-24 14:00N 34°33' E 135°27'0 0.0
2018-Feb-24 13:29N 34°33' E 135°27'0 0.0
2018-Feb-24 13:00N 34°33' E 135°27'4 8.7
2018-Feb-24 12:30N 34°33' E 135°21'714.4
2018-Feb-24 12:00N 34°34' E 135°13'714.7
2018-Feb-24 11:30N 34°35' E 135°04'611.6
2018-Feb-24 11:00N 34°36' E 134°57'4 8.8
2018-Feb-24 10:30N 34°37' E 135°02'4 7.8
2018-Feb-24 10:00N 34°37' E 135°07'3 5.1
2018-Feb-24 09:30N 34°38' E 135°10'0 0.1
2018-Feb-24 09:00N 34°38' E 135°10'0 0.0
2018-Feb-24 08:30N 34°38' E 135°10'0 0.0
2018-Feb-24 08:01N 34°38' E 135°10'0 0.1
2018-Feb-24 07:30N 34°38' E 135°10'0 0.1
2018-Feb-24 07:00N 34°38' E 135°10'0 0.0
2018-Feb-24 06:30N 34°38' E 135°10'0 0.1
2018-Feb-24 06:01N 34°38' E 135°10'0 0.0
2018-Feb-24 05:31N 34°38' E 135°10'1 2.9
2018-Feb-24 05:00N 34°37' E 135°09'612.0
2018-Feb-24 04:30N 34°37' E 135°01'815.1
2018-Feb-24 04:00N 34°35' E 134°52'816.1
2018-Feb-24 03:30N 34°32' E 134°43'816.3
2018-Feb-24 03:00N 34°29' E 134°34'816.2
2018-Feb-24 02:30N 34°27' E 134°25'  
2018-Feb-18 10:49N 34°26' E 134°08'1414.6
2018-Feb-18 09:53N 34°27' E 134°24'614.7
2018-Feb-18 09:30N 34°29' E 134°31'714.5
2018-Feb-18 09:00N 34°31' E 134°39'714.2
2018-Feb-18 08:30N 34°34' E 134°47'713.2
2018-Feb-18 08:00N 34°36' E 134°54'611.6
2018-Feb-18 07:30N 34°37' E 135°01'612.2
2018-Feb-18 07:00N 34°35' E 135°09'714.3
2018-Feb-18 06:31N 34°34' E 135°17'714.2
2018-Feb-18 06:00N 34°33' E 135°26'1 1.6
2018-Feb-18 05:30N 34°33' E 135°27'0 0.0
2018-Feb-18 05:00N 34°33' E 135°27'0 0.0
2018-Feb-18 04:30N 34°33' E 135°27'0 0.0
2018-Feb-18 03:59N 34°33' E 135°27'0 0.0
2018-Feb-18 03:30N 34°33' E 135°27'0 0.0
2018-Feb-18 03:00N 34°33' E 135°27'0 0.0
2018-Feb-18 02:30N 34°33' E 135°27'0 0.0
2018-Feb-18 02:00N 34°33' E 135°27'0 0.0
2018-Feb-18 01:30N 34°33' E 135°27'0 0.0
2018-Feb-18 01:00N 34°33' E 135°27'0 0.0
2018-Feb-18 00:29N 34°33' E 135°27'0 0.0
2018-Feb-18 00:00N 34°33' E 135°27'0 0.0
2018-Feb-17 23:30N 34°33' E 135°27'0 0.0
2018-Feb-17 23:00N 34°33' E 135°27'0 0.0
2018-Feb-17 22:30N 34°33' E 135°27'0 0.0
2018-Feb-17 22:00N 34°33' E 135°27'0 0.0
2018-Feb-17 21:30N 34°33' E 135°27'0 0.0
2018-Feb-17 20:58N 34°33' E 135°27'0 0.0
2018-Feb-17 20:30N 34°33' E 135°27'0 0.0
2018-Feb-17 20:00N 34°33' E 135°27'0 0.0
2018-Feb-17 19:30N 34°33' E 135°27'0 0.0
2018-Feb-17 19:00N 34°33' E 135°27'0 0.0
2018-Feb-17 18:30N 34°33' E 135°27'0 0.0
2018-Feb-17 18:00N 34°33' E 135°27'0 0.0
2018-Feb-17 17:30N 34°33' E 135°27'0 0.0
2018-Feb-17 17:01N 34°33' E 135°27'0 0.0
2018-Feb-17 16:30N 34°33' E 135°27'0 0.0
2018-Feb-17 16:00N 34°33' E 135°27'0 0.0
2018-Feb-17 15:30N 34°33' E 135°27'0 0.0
2018-Feb-17 15:00N 34°33' E 135°27'0 0.0
2018-Feb-17 14:30N 34°33' E 135°27'0 0.0
2018-Feb-17 14:00N 34°33' E 135°27'0 0.0
2018-Feb-17 13:30N 34°33' E 135°27'0 0.0
2018-Feb-17 13:00N 34°33' E 135°27'0 0.0
2018-Feb-17 12:30N 34°33' E 135°27'0 0.0
2018-Feb-17 12:01N 34°33' E 135°27'0 0.0
2018-Feb-17 11:30N 34°33' E 135°27'0 0.0
2018-Feb-17 11:00N 34°33' E 135°27'0 0.0
2018-Feb-17 10:30N 34°33' E 135°27'0 0.0
2018-Feb-17 10:01N 34°33' E 135°27'0 0.0
2018-Feb-17 09:30N 34°33' E 135°27'0 0.0
2018-Feb-17 09:00N 34°33' E 135°27'0 0.0
2018-Feb-17 08:30N 34°33' E 135°27'0 0.0
2018-Feb-17 08:01N 34°33' E 135°27'0 0.0
2018-Feb-17 07:31N 34°33' E 135°27'0 0.0
2018-Feb-17 07:00N 34°33' E 135°27'0 0.0
2018-Feb-17 06:29N 34°33' E 135°27'0 0.0
2018-Feb-17 06:00N 34°33' E 135°27'0 0.0
2018-Feb-17 05:30N 34°33' E 135°27'0 0.0
2018-Feb-17 05:00N 34°33' E 135°27'0 0.0
2018-Feb-17 04:31N 34°33' E 135°27'0 0.0
2018-Feb-17 04:01N 34°33' E 135°27'0 0.0
2018-Feb-17 03:30N 34°33' E 135°27'0 0.0
2018-Feb-17 03:00N 34°33' E 135°27'0 0.0
2018-Feb-17 02:30N 34°33' E 135°27'0 0.0
2018-Feb-17 02:00N 34°33' E 135°27'0 0.0
2018-Feb-17 01:31N 34°33' E 135°27'0 0.0
2018-Feb-17 01:00N 34°33' E 135°27'0 0.0
2018-Feb-17 00:30N 34°33' E 135°27'0 0.0
2018-Feb-17 00:00N 34°33' E 135°27'0 0.0
2018-Feb-16 23:31N 34°33' E 135°27'0 0.0
2018-Feb-16 23:01N 34°33' E 135°27'0 0.0
2018-Feb-16 22:30N 34°33' E 135°27'0 0.0
2018-Feb-16 22:00N 34°33' E 135°27'0 0.0
2018-Feb-16 21:30N 34°33' E 135°27'0 0.0
2018-Feb-16 21:00N 34°33' E 135°27'0 0.0
2018-Feb-16 20:30N 34°33' E 135°27'0 0.0
2018-Feb-16 20:00N 34°33' E 135°27'0 0.0
2018-Feb-16 19:30N 34°33' E 135°27'0 0.0
2018-Feb-16 19:01N 34°33' E 135°27'0 0.0
2018-Feb-16 18:30N 34°33' E 135°27'0 0.0
2018-Feb-16 18:00N 34°33' E 135°27'0 0.0
2018-Feb-16 17:30N 34°33' E 135°27'0 0.0
2018-Feb-16 16:59N 34°33' E 135°27'0 0.0
2018-Feb-16 16:31N 34°33' E 135°27'0 0.0
2018-Feb-16 16:00N 34°33' E 135°27'0 0.0
2018-Feb-16 15:29N 34°33' E 135°27'0 0.0
2018-Feb-16 15:00N 34°33' E 135°27'0 0.0
2018-Feb-16 14:31N 34°33' E 135°27'0 0.0
2018-Feb-16 14:01N 34°33' E 135°27'0 0.0
2018-Feb-16 13:30N 34°33' E 135°27'0 0.0
2018-Feb-16 13:00N 34°33' E 135°27'0 0.0
2018-Feb-16 12:30N 34°33' E 135°27'0 0.0
2018-Feb-16 12:01N 34°33' E 135°27'0 0.0
2018-Feb-16 11:30N 34°33' E 135°27'0 0.0
2018-Feb-16 11:01N 34°33' E 135°27'0 0.0
2018-Feb-16 10:30N 34°33' E 135°27'0 0.0
2018-Feb-16 10:01N 34°33' E 135°27'0 0.0
2018-Feb-16 09:30N 34°33' E 135°27'0 0.0
2018-Feb-16 09:00N 34°33' E 135°27'0 0.0
2018-Feb-16 08:30N 34°33' E 135°27'0 0.0
2018-Feb-16 08:01N 34°33' E 135°27'0 0.0
2018-Feb-16 07:31N 34°33' E 135°27'0 0.0
2018-Feb-16 07:00N 34°33' E 135°27'0 0.0
2018-Feb-16 06:30N 34°33' E 135°27'0 0.0
2018-Feb-16 06:00N 34°33' E 135°27'1 2.3
2018-Feb-16 05:30N 34°33' E 135°25'0 0.3
2018-Feb-16 05:00N 34°33' E 135°25'0 0.0
2018-Feb-16 04:30N 34°33' E 135°25'0 0.0
2018-Feb-16 04:00N 34°34' E 135°25'0 0.2
2018-Feb-16 03:31N 34°33' E 135°25'0 0.1
2018-Feb-16 03:01N 34°33' E 135°25'0 0.0
2018-Feb-16 02:30N 34°34' E 135°25'0 0.1
2018-Feb-16 02:00N 34°33' E 135°25'0 0.1
2018-Feb-16 01:31N 34°33' E 135°25'0 0.0
2018-Feb-16 01:00N 34°34' E 135°25'0 0.0
2018-Feb-16 00:31N 34°34' E 135°25'0 0.1
2018-Feb-16 00:00N 34°33' E 135°25'0 0.1
2018-Feb-15 23:31N 34°34' E 135°25'0 0.1
2018-Feb-15 23:01N 34°34' E 135°25'0 0.1
2018-Feb-15 22:30N 34°34' E 135°25'0 0.1
2018-Feb-15 22:00N 34°34' E 135°25'0 0.0
2018-Feb-15 21:30N 34°33' E 135°25'0 0.2
2018-Feb-15 21:01N 34°33' E 135°25'0 0.1
2018-Feb-15 20:30N 34°33' E 135°25'0 0.2
2018-Feb-15 20:01N 34°34' E 135°25'0 0.2
2018-Feb-15 19:30N 34°34' E 135°25'0 0.2
2018-Feb-15 19:01N 34°33' E 135°25'0 0.3
2018-Feb-15 18:31N 34°34' E 135°25'0 0.2
2018-Feb-15 18:00N 34°33' E 135°25'0 0.2
2018-Feb-15 17:30N 34°33' E 135°25'0 0.1
2018-Feb-15 17:00N 34°33' E 135°25'0 0.0
2018-Feb-15 16:30N 34°33' E 135°25'0 0.0
2018-Feb-15 16:00N 34°33' E 135°25'0 0.1
2018-Feb-15 15:31N 34°33' E 135°25'0 0.0
2018-Feb-15 15:00N 34°33' E 135°25'0 0.0
2018-Feb-15 14:30N 34°33' E 135°25'0 0.1
2018-Feb-15 14:00N 34°33' E 135°25'0 0.0
2018-Feb-15 13:30N 34°33' E 135°25'0 0.0
2018-Feb-15 13:00N 34°33' E 135°25'0 0.1
2018-Feb-15 12:30N 34°33' E 135°25'0 0.0
2018-Feb-15 12:01N 34°33' E 135°25'0 0.1
2018-Feb-15 11:31N 34°33' E 135°25'0 0.1
2018-Feb-15 11:00N 34°33' E 135°25'0 0.2
2018-Feb-15 10:31N 34°33' E 135°25'0 0.1
2018-Feb-15 10:00N 34°33' E 135°25'0 0.2
2018-Feb-15 09:30N 34°33' E 135°25'0 0.2
2018-Feb-15 09:00N 34°33' E 135°25'0 0.0
2018-Feb-15 08:30N 34°33' E 135°25'0 0.3
2018-Feb-15 08:00N 34°33' E 135°25'0 0.2
2018-Feb-15 07:31N 34°33' E 135°25'0 0.1
2018-Feb-15 07:01N 34°34' E 135°25'0 0.0
2018-Feb-15 06:31N 34°33' E 135°25'0 0.2
2018-Feb-15 06:00N 34°34' E 135°25'0 0.0
2018-Feb-15 05:30N 34°34' E 135°25'0 0.3
2018-Feb-15 05:01N 34°34' E 135°25'1 1.5
2018-Feb-15 04:30N 34°33' E 135°24'3 6.1
2018-Feb-15 04:00N 34°33' E 135°20'2 4.0
2018-Feb-15 03:29N 34°33' E 135°23'3 6.4
2018-Feb-15 03:00N 34°33' E 135°27'0 0.0
2018-Feb-15 02:30N 34°33' E 135°27'0 0.0
2018-Feb-15 02:00N 34°33' E 135°27'0 0.0
2018-Feb-15 01:30N 34°33' E 135°27'0 0.0
2018-Feb-15 01:00N 34°33' E 135°27'0 0.0
2018-Feb-15 00:30N 34°33' E 135°27'0 0.0
2018-Feb-15 00:00N 34°33' E 135°27'0 0.0
2018-Feb-14 23:30N 34°33' E 135°27'0 0.0
2018-Feb-14 22:59N 34°33' E 135°27'0 0.0
2018-Feb-14 22:31N 34°33' E 135°27'0 0.0
2018-Feb-14 22:00N 34°33' E 135°27'0 0.0
2018-Feb-14 21:30N 34°33' E 135°27'0 0.0
2018-Feb-14 21:00N 34°33' E 135°27'0 0.0
2018-Feb-14 20:30N 34°33' E 135°27'0 0.0
2018-Feb-14 20:00N 34°33' E 135°27'0 0.0
2018-Feb-14 19:30N 34°33' E 135°27'0 0.0
2018-Feb-14 19:00N 34°33' E 135°27'0 0.0
2018-Feb-14 18:30N 34°33' E 135°27'0 0.0
2018-Feb-14 18:00N 34°33' E 135°27'0 0.0
2018-Feb-14 17:30N 34°33' E 135°27'0 0.0
2018-Feb-14 17:00N 34°33' E 135°27'0 0.0
2018-Feb-14 16:30N 34°33' E 135°27'0 0.0
2018-Feb-14 16:00N 34°33' E 135°27'0 0.0
2018-Feb-14 15:30N 34°33' E 135°27'  

Dump ship's entire track history